Time;durP1;ratioP1;P1;durP2;ratioP2;P2;SDS_P1;SDS_P2;PMS_P1;PMS_P2;Temp;Humidity;BMP_temperature;BMP_pressure;BME280_temperature;BME280_humidity;BME280_pressure;Samples;Min_cycle;Max_cycle;Signal;HPM_P1;HPM_P2
2023/01/20 00:01:39;;;;;;;9.68;5.78;;;1.20;99.90;;;;;;5017397;28;20044;-72
2023/01/20 00:04:05;;;;;;;14.95;6.18;;;1.20;99.90;;;;;;5030810;28;20029;-72
2023/01/20 00:06:31;;;;;;;7.32;4.68;;;1.20;99.90;;;;;;5020823;28;20041;-72
2023/01/20 00:09:00;;;;;;;9.27;5.43;;;1.20;99.90;;;;;;5030744;28;20030;-72
2023/01/20 00:11:27;;;;;;;8.98;5.13;;;1.20;99.90;;;;;;5024147;28;20065;-72
2023/01/20 00:14:00;;;;;;;9.95;5.18;;;1.20;99.90;;;;;;5030812;28;20029;-72
2023/01/20 00:16:27;;;;;;;10.50;4.50;;;1.20;99.90;;;;;;5014920;28;20240;-72
2023/01/20 00:18:54;;;;;;;14.23;5.03;;;1.20;99.90;;;;;;5030921;28;20100;-72
2023/01/20 00:21:20;;;;;;;12.18;6.00;;;1.20;99.90;;;;;;5024127;28;20109;-72
2023/01/20 00:23:47;;;;;;;11.52;5.57;;;1.20;99.90;;;;;;5025551;28;20449;-72
2023/01/20 00:26:19;;;;;;;11.43;5.03;;;1.20;99.90;;;;;;5024297;28;20493;-72
2023/01/20 00:28:47;;;;;;;8.13;3.78;;;1.20;99.90;;;;;;5030597;28;20076;-72
2023/01/20 00:31:20;;;;;;;8.32;4.63;;;1.20;99.90;;;;;;5022148;28;20071;-72
2023/01/20 00:33:47;;;;;;;9.23;3.95;;;1.20;99.90;;;;;;5031942;28;20041;-71
2023/01/20 00:36:16;;;;;;;8.18;4.78;;;1.20;99.90;;;;;;5028386;28;20052;-72
2023/01/20 00:38:42;;;;;;;6.70;4.05;;;1.20;99.90;;;;;;5045039;28;20040;-72
2023/01/20 00:41:08;;;;;;;9.98;4.45;;;1.20;99.90;;;;;;5028285;28;20033;-72
2023/01/20 00:43:35;;;;;;;6.03;3.97;;;1.10;99.90;;;;;;5034433;28;20026;-72
2023/01/20 00:46:01;;;;;;;10.57;5.78;;;1.20;99.90;;;;;;5028544;28;20033;-72
2023/01/20 00:48:27;;;;;;;12.82;5.72;;;1.10;99.90;;;;;;5042832;28;20064;-72
2023/01/20 00:50:53;;;;;;;8.25;4.70;;;1.10;99.90;;;;;;5028168;28;20461;-72
2023/01/20 00:53:19;;;;;;;8.30;5.38;;;1.10;99.90;;;;;;5034278;28;20034;-72
2023/01/20 00:55:45;;;;;;;19.98;5.68;;;1.20;99.90;;;;;;5042553;28;20464;-72
2023/01/20 00:58:10;;;;;;;6.50;4.28;;;1.10;99.90;;;;;;5034028;28;20044;-72
2023/01/20 01:00:36;;;;;;;13.00;5.07;;;1.10;99.90;;;;;;5027747;28;20057;-72
2023/01/20 01:03:02;;;;;;;8.88;4.22;;;1.10;99.90;;;;;;5041159;28;20026;-72
2023/01/20 01:05:27;;;;;;;10.60;4.82;;;1.10;99.90;;;;;;5042626;28;20033;-71
2023/01/20 01:07:53;;;;;;;8.45;4.72;;;1.10;99.90;;;;;;5024344;28;20029;-72
2023/01/20 01:10:19;;;;;;;12.90;6.22;;;1.10;99.90;;;;;;5032740;28;20440;-72
2023/01/20 01:12:44;;;;;;;12.32;5.30;;;1.10;99.90;;;;;;5035977;28;20116;-71
2023/01/20 01:15:10;;;;;;;12.55;4.93;;;1.10;99.90;;;;;;5044735;28;20049;-72
2023/01/20 01:17:36;;;;;;;13.27;5.40;;;1.10;99.90;;;;;;5042992;28;20029;-72
2023/01/20 01:20:03;;;;;;;18.80;5.13;;;1.10;99.90;;;;;;5029705;28;20061;-71
2023/01/20 01:22:32;;;;;;;12.20;5.72;;;1.10;99.90;;;;;;5025720;28;20111;-71
2023/01/20 01:24:57;;;;;;;14.20;5.03;;;1.20;99.90;;;;;;5044626;28;20076;-72
2023/01/20 01:27:23;;;;;;;9.50;6.07;;;1.10;99.90;;;;;;5033399;28;20064;-72
2023/01/20 01:29:49;;;;;;;13.73;6.55;;;1.20;99.90;;;;;;5027806;28;20022;-71
2023/01/20 01:32:14;;;;;;;8.18;3.72;;;1.20;99.90;;;;;;5033226;28;20021;-71
2023/01/20 01:34:40;;;;;;;9.70;4.82;;;1.30;99.90;;;;;;5032513;28;20104;-72
2023/01/20 01:37:06;;;;;;;15.55;6.00;;;1.30;99.90;;;;;;5032883;28;20041;-71
2023/01/20 01:39:31;;;;;;;7.82;4.82;;;1.30;99.90;;;;;;5029730;28;20030;-72
2023/01/20 01:41:57;;;;;;;14.80;5.63;;;1.30;99.90;;;;;;5021406;28;20033;-71
2023/01/20 01:44:26;;;;;;;10.13;6.38;;;1.30;99.90;;;;;;5030671;28;20039;-71
2023/01/20 01:46:52;;;;;;;15.00;6.00;;;1.20;99.90;;;;;;5030119;28;20030;-71
2023/01/20 01:49:30;;;;;;;14.55;6.13;;;1.20;99.90;;;;;;5031636;28;20030;-71
2023/01/20 01:52:07;;;;;;;8.65;4.63;;;1.20;99.90;;;;;;5024232;28;20080;-71
2023/01/20 01:54:37;;;;;;;9.35;4.35;;;1.20;99.90;;;;;;5044199;28;20018;-72
2023/01/20 01:57:06;;;;;;;8.77;4.65;;;1.20;99.90;;;;;;5023445;28;20038;-72
2023/01/20 01:59:32;;;;;;;15.02;6.38;;;1.20;99.90;;;;;;5044379;28;20030;-71
2023/01/20 02:01:58;;;;;;;11.38;5.65;;;1.20;99.90;;;;;;5020851;28;20389;-71
2023/01/20 02:04:26;;;;;;;9.23;4.85;;;1.20;99.90;;;;;;5026934;28;20029;-72
2023/01/20 02:07:16;;;;;;;14.60;6.80;;;1.30;99.90;;;;;;5008125;28;20524;-70
2023/01/20 02:09:42;;;;;;;15.68;6.03;;;1.20;99.90;;;;;;5008625;28;20437;-70
2023/01/20 02:12:13;;;;;;;9.52;5.38;;;1.20;99.90;;;;;;4998483;28;20112;-73
2023/01/20 02:14:48;;;;;;;9.95;5.28;;;1.20;99.90;;;;;;5046252;28;20029;-70
2023/01/20 02:17:29;;;;;;;10.52;5.25;;;1.10;99.90;;;;;;5038032;28;20144;-71
2023/01/20 02:20:50;;;;;;;7.88;4.70;;;1.10;99.90;;;;;;5016795;28;20099;-71
2023/01/20 02:24:21;;;;;;;8.30;4.47;;;1.10;99.90;;;;;;5011142;23;20565;-80
2023/01/20 02:27:31;;;;;;;7.00;5.18;;;1.10;99.90;;;;;;4931794;29;20054;-81
2023/01/20 02:30:29;;;;;;;11.50;6.47;;;1.10;99.90;;;;;;4880610;29;20033;-81
2023/01/20 02:33:15;;;;;;;8.43;3.92;;;1.10;99.90;;;;;;4989805;28;20043;-81
2023/01/20 02:35:48;;;;;;;9.40;5.05;;;1.10;99.90;;;;;;4993144;28;20026;-81
2023/01/20 02:39:00;;;;;;;6.22;4.72;;;1.10;99.90;;;;;;4975107;28;20026;-81
2023/01/20 02:41:54;;;;;;;9.32;5.55;;;1.10;99.90;;;;;;4980078;28;20038;-80
2023/01/20 02:44:45;;;;;;;6.53;4.60;;;1.10;99.90;;;;;;4982382;28;20105;-80
2023/01/20 02:47:51;;;;;;;11.25;5.65;;;1.00;99.90;;;;;;4988214;28;20049;-80
2023/01/20 02:50:31;;;;;;;9.98;5.57;;;1.00;99.90;;;;;;4992499;28;20520;-80
2023/01/20 02:53:00;;;;;;;13.63;6.60;;;1.00;99.90;;;;;;4990819;28;20031;-81
2023/01/20 02:55:34;;;;;;;14.35;6.60;;;1.00;99.90;;;;;;4968553;28;20486;-81
2023/01/20 02:58:06;;;;;;;10.90;6.38;;;1.00;99.90;;;;;;4989423;28;20058;-81
2023/01/20 03:00:49;;;;;;;15.52;5.68;;;1.00;99.90;;;;;;4975439;28;20038;-81
2023/01/20 03:03:23;;;;;;;8.25;4.25;;;1.00;99.90;;;;;;4990235;28;20040;-80
2023/01/20 03:05:56;;;;;;;10.55;6.13;;;1.00;99.90;;;;;;4975407;28;20132;-80
2023/01/20 03:08:25;;;;;;;9.00;4.57;;;1.00;99.90;;;;;;4959162;28;20390;-81
2023/01/20 03:10:56;;;;;;;13.98;5.90;;;1.10;99.90;;;;;;4975273;28;20046;-81
2023/01/20 03:14:01;;;;;;;23.05;6.40;;;1.10;99.90;;;;;;4974473;28;20026;-80
2023/01/20 03:16:28;;;;;;;9.20;6.10;;;1.10;99.90;;;;;;4970232;28;20045;-81
2023/01/20 03:18:54;;;;;;;7.80;4.80;;;1.10;99.90;;;;;;4986932;28;20066;-80
2023/01/20 03:21:24;;;;;;;11.15;5.53;;;1.10;99.90;;;;;;4974657;28;20077;-80
2023/01/20 03:23:54;;;;;;;16.02;4.82;;;1.10;99.90;;;;;;4951578;28;20495;-80
2023/01/20 03:26:22;;;;;;;15.43;5.90;;;1.10;99.90;;;;;;4984429;28;20084;-81
2023/01/20 03:28:49;;;;;;;8.30;4.97;;;1.10;99.90;;;;;;4989763;28;20038;-80
2023/01/20 03:31:28;;;;;;;11.40;5.30;;;1.10;99.90;;;;;;4990381;28;20030;-80
2023/01/20 03:33:58;;;;;;;9.07;4.80;;;1.10;99.90;;;;;;4991362;28;20049;-80
2023/01/20 03:36:27;;;;;;;11.75;3.80;;;1.10;99.90;;;;;;4974733;28;20058;-81
2023/01/20 03:38:54;;;;;;;10.82;4.97;;;1.10;99.90;;;;;;4974210;28;20147;-81
2023/01/20 03:42:04;;;;;;;6.97;4.03;;;1.10;99.90;;;;;;4974410;28;20030;-81
2023/01/20 03:45:19;;;;;;;12.10;4.28;;;1.10;99.90;;;;;;4961668;28;20085;-81
2023/01/20 03:48:11;;;;;;;8.32;4.78;;;1.00;99.90;;;;;;4986385;28;20030;-81
2023/01/20 03:50:55;;;;;;;10.63;4.88;;;1.00;99.90;;;;;;4986653;28;20553;-81
2023/01/20 03:53:44;;;;;;;10.27;4.95;;;0.90;99.90;;;;;;4957767;28;20482;-81
2023/01/20 03:56:18;;;;;;;11.95;5.43;;;0.90;99.90;;;;;;4974914;28;20038;-81
2023/01/20 03:58:52;;;;;;;11.32;5.85;;;0.90;99.90;;;;;;4973653;28;20038;-82
2023/01/20 04:01:23;;;;;;;14.93;4.90;;;0.80;99.90;;;;;;4966852;28;20080;-81
2023/01/20 04:03:53;;;;;;;12.70;4.72;;;0.80;99.90;;;;;;4990667;28;20061;-81
2023/01/20 04:06:22;;;;;;;8.02;4.97;;;0.80;99.90;;;;;;4966508;28;20034;-81
2023/01/20 04:08:58;;;;;;;13.55;8.15;;;0.70;99.90;;;;;;4989389;28;20037;-81
2023/01/20 04:11:24;;;;;;;9.57;5.47;;;0.70;99.90;;;;;;4967591;28;20046;-80
2023/01/20 04:13:50;;;;;;;10.32;6.57;;;0.70;99.90;;;;;;4990903;28;20034;-81
2023/01/20 04:16:18;;;;;;;8.75;4.70;;;0.60;99.90;;;;;;4973486;28;20030;-81
2023/01/20 04:18:50;;;;;;;13.45;6.32;;;0.60;99.90;;;;;;4985447;28;20035;-81
2023/01/20 04:21:44;;;;;;;7.28;4.75;;;0.60;99.90;;;;;;4981793;28;20109;-81
2023/01/20 04:24:41;;;;;;;10.60;5.55;;;0.50;99.90;;;;;;4973742;28;20030;-81
2023/01/20 04:27:07;;;;;;;6.28;4.13;;;0.50;99.90;;;;;;4990972;28;20390;-81
2023/01/20 04:29:33;;;;;;;7.80;4.57;;;0.50;99.90;;;;;;4989924;28;20026;-81
2023/01/20 04:32:02;;;;;;;16.58;6.53;;;0.40;99.90;;;;;;4973581;28;20569;-81
2023/01/20 04:34:28;;;;;;;9.18;3.60;;;0.40;99.90;;;;;;4983286;28;20498;-80
2023/01/20 04:36:54;;;;;;;9.95;4.80;;;0.40;99.90;;;;;;4990678;28;20053;-81
2023/01/20 04:39:20;;;;;;;6.85;4.25;;;0.40;99.90;;;;;;4972653;28;20610;-81
2023/01/20 04:41:49;;;;;;;9.45;4.00;;;0.30;99.90;;;;;;4990790;28;20035;-81
2023/01/20 04:44:15;;;;;;;11.25;4.35;;;0.20;99.90;;;;;;4990527;28;20026;-81
2023/01/20 04:46:40;;;;;;;5.78;4.25;;;0.20;99.90;;;;;;4973015;28;20030;-81
2023/01/20 04:49:06;;;;;;;9.85;7.10;;;0.10;99.90;;;;;;4989876;28;20045;-81
2023/01/20 04:51:32;;;;;;;10.45;5.18;;;0.10;99.90;;;;;;4990653;28;20117;-81
2023/01/20 04:53:59;;;;;;;6.63;4.72;;;0.10;99.90;;;;;;4990230;28;20030;-81
2023/01/20 04:56:25;;;;;;;10.27;5.45;;;0.10;99.90;;;;;;4990901;28;20088;-81
2023/01/20 04:58:52;;;;;;;8.00;4.88;;;0.00;99.90;;;;;;4989951;28;20121;-81
2023/01/20 05:01:17;;;;;;;10.18;5.25;;;0.00;99.90;;;;;;4973118;28;20030;-81
2023/01/20 05:03:43;;;;;;;7.78;4.47;;;-0.10;99.90;;;;;;4989700;28;20030;-81
2023/01/20 05:06:12;;;;;;;7.90;3.92;;;-0.10;99.90;;;;;;4956566;28;20071;-81
2023/01/20 05:08:38;;;;;;;9.65;5.38;;;-0.10;99.90;;;;;;4989768;28;20038;-81
2023/01/20 05:11:04;;;;;;;6.13;4.22;;;-0.20;99.90;;;;;;4990511;28;20026;-81
2023/01/20 05:13:31;;;;;;;10.18;5.97;;;-0.20;99.90;;;;;;4972809;28;20395;-81
2023/01/20 05:15:56;;;;;;;8.63;4.30;;;-0.20;99.90;;;;;;4973081;28;20113;-81
2023/01/20 05:18:22;;;;;;;8.95;4.60;;;-0.20;99.90;;;;;;4989757;28;20121;-80
2023/01/20 05:20:49;;;;;;;11.30;4.50;;;-0.20;99.90;;;;;;4993237;28;20442;-81
2023/01/20 05:23:16;;;;;;;10.02;4.85;;;-0.30;99.90;;;;;;4991632;28;20498;-81
2023/01/20 05:25:42;;;;;;;8.65;5.38;;;-0.30;99.90;;;;;;4994159;28;20026;-81
2023/01/20 05:28:08;;;;;;;15.68;6.15;;;-0.30;99.90;;;;;;4975451;28;20457;-81
2023/01/20 05:30:33;;;;;;;30.73;15.00;;;-0.20;99.90;;;;;;4993886;28;20116;-81
2023/01/20 05:32:59;;;;;;;10.13;6.43;;;-0.20;99.90;;;;;;4993318;28;20034;-81
2023/01/20 05:35:25;;;;;;;11.88;5.47;;;-0.20;99.90;;;;;;4993985;28;20724;-81
2023/01/20 05:37:54;;;;;;;15.65;6.53;;;-0.20;99.90;;;;;;4993396;28;20042;-81
2023/01/20 05:40:20;;;;;;;40.88;18.25;;;-0.20;99.90;;;;;;4993533;28;20052;-81
2023/01/20 05:42:46;;;;;;;22.98;13.00;;;-0.20;99.90;;;;;;4976706;28;20030;-79
2023/01/20 05:45:12;;;;;;;19.10;8.85;;;-0.20;99.90;;;;;;4990262;28;20371;-81
2023/01/20 05:47:37;;;;;;;11.07;4.95;;;-0.30;99.90;;;;;;4993890;28;20040;-81
2023/01/20 05:50:04;;;;;;;9.32;4.78;;;-0.30;99.90;;;;;;4989805;28;20049;-80
2023/01/20 05:52:30;;;;;;;6.30;4.10;;;-0.30;99.90;;;;;;4996406;28;20463;-80
2023/01/20 05:54:55;;;;;;;11.30;6.55;;;-0.30;99.90;;;;;;4993133;28;20101;-80
2023/01/20 05:57:25;;;;;;;15.35;6.00;;;-0.40;99.90;;;;;;4976272;28;20034;-79
2023/01/20 05:59:51;;;;;;;7.53;4.45;;;-0.40;99.90;;;;;;4975835;28;20394;-79
2023/01/20 06:02:18;;;;;;;8.50;4.80;;;-0.40;99.90;;;;;;4993453;28;20038;-79
2023/01/20 06:04:48;;;;;;;9.18;4.15;;;-0.40;99.90;;;;;;4975874;28;20069;-79
2023/01/20 06:07:14;;;;;;;17.02;4.20;;;-0.50;99.90;;;;;;4975836;28;20045;-79
2023/01/20 06:09:40;;;;;;;13.85;5.38;;;-0.50;99.90;;;;;;4993098;28;20062;-78
2023/01/20 06:12:07;;;;;;;12.70;6.63;;;-0.50;99.90;;;;;;4993406;28;20054;-79
2023/01/20 06:14:33;;;;;;;30.50;17.13;;;-0.60;99.90;;;;;;4967593;28;20042;-79
2023/01/20 06:16:58;;;;;;;15.68;9.10;;;-0.60;99.90;;;;;;4992979;28;20524;-78
2023/01/20 06:19:24;;;;;;;22.90;6.32;;;-0.70;99.90;;;;;;4992472;28;20049;-77
2023/01/20 06:21:50;;;;;;;15.20;5.88;;;-0.80;99.90;;;;;;4993183;28;20128;-78
2023/01/20 06:24:16;;;;;;;7.88;4.65;;;-0.80;99.90;;;;;;4992420;28;20037;-78
2023/01/20 06:26:41;;;;;;;6.15;4.65;;;-0.80;99.90;;;;;;4992717;28;20030;-79
2023/01/20 06:29:07;;;;;;;13.45;5.35;;;-0.80;99.90;;;;;;4985751;28;20031;-78
2023/01/20 06:31:33;;;;;;;9.25;5.55;;;-0.80;99.90;;;;;;4975678;28;20792;-77
2023/01/20 06:33:58;;;;;;;7.32;4.80;;;-0.80;99.90;;;;;;4992595;28;20042;-79
2023/01/20 06:36:24;;;;;;;14.73;4.88;;;-0.90;99.90;;;;;;4992780;28;20034;-80
2023/01/20 06:38:51;;;;;;;13.82;5.15;;;-0.90;99.90;;;;;;4992324;28;20038;-79
2023/01/20 06:41:19;;;;;;;10.57;5.45;;;-0.90;99.90;;;;;;4984626;28;20402;-78
2023/01/20 06:43:45;;;;;;;9.25;5.03;;;-1.00;99.90;;;;;;4987048;28;20026;-74
2023/01/20 06:46:14;;;;;;;7.43;4.47;;;-0.90;99.90;;;;;;4992459;28;20037;-78
2023/01/20 06:48:44;;;;;;;7.65;5.55;;;-1.00;99.90;;;;;;4992650;28;20058;-78
2023/01/20 06:51:14;;;;;;;8.95;5.25;;;-1.00;99.90;;;;;;4993234;28;20031;-80
2023/01/20 06:53:40;;;;;;;10.32;6.03;;;-1.00;99.90;;;;;;4986680;28;20100;-76
2023/01/20 06:56:08;;;;;;;7.65;4.30;;;-0.90;99.90;;;;;;4971308;28;20038;-79
2023/01/20 06:58:34;;;;;;;6.43;3.65;;;-0.90;99.90;;;;;;4989699;28;20066;-81
2023/01/20 07:01:15;;;;;;;6.10;4.45;;;-0.90;99.90;;;;;;4973951;28;20038;-82
2023/01/20 07:03:42;;;;;;;7.60;4.57;;;-0.90;99.90;;;;;;4967118;28;20513;-81
2023/01/20 07:06:28;;;;;;;9.10;4.55;;;-0.90;99.90;;;;;;4988058;28;20110;-80
2023/01/20 07:08:54;;;;;;;11.25;5.28;;;-1.00;99.90;;;;;;4962815;28;20034;-78
2023/01/20 07:11:20;;;;;;;12.65;5.90;;;-1.00;99.90;;;;;;4979137;28;20494;-78
2023/01/20 07:13:46;;;;;;;10.00;5.25;;;-1.10;99.90;;;;;;4981738;28;20042;-76
2023/01/20 07:16:13;;;;;;;14.25;6.38;;;-1.10;99.90;;;;;;4970474;28;20088;-77
2023/01/20 07:18:39;;;;;;;10.38;4.90;;;-1.00;99.90;;;;;;4989081;28;20117;-77
2023/01/20 07:21:05;;;;;;;10.13;5.57;;;-1.10;99.90;;;;;;4988385;28;20113;-79
2023/01/20 07:23:32;;;;;;;11.95;6.25;;;-1.00;99.90;;;;;;4991608;28;20037;-76
2023/01/20 07:26:11;;;;;;;17.10;4.93;;;-1.00;99.90;;;;;;4991731;28;20076;-82
2023/01/20 07:28:37;;;;;;;8.70;5.72;;;-1.00;99.90;;;;;;4974317;28;20026;-83
2023/01/20 07:31:14;;;;;;;12.68;5.43;;;-1.00;99.90;;;;;;4991051;28;20549;-83
2023/01/20 07:33:40;;;;;;;10.68;5.75;;;-1.00;99.90;;;;;;4992068;28;20062;-81
2023/01/20 07:36:08;;;;;;;8.43;5.85;;;-1.00;99.90;;;;;;4990793;28;20490;-78
2023/01/20 07:38:34;;;;;;;11.88;5.90;;;-1.00;99.90;;;;;;4974639;28;20062;-79
2023/01/20 07:41:02;;;;;;;7.25;4.93;;;-1.00;99.90;;;;;;4990477;28;20030;-78
2023/01/20 07:43:28;;;;;;;12.88;4.80;;;-0.90;99.90;;;;;;4991330;28;20447;-80
2023/01/20 07:46:00;;;;;;;5.40;4.18;;;-0.90;99.90;;;;;;4990145;28;20576;-81
2023/01/20 07:48:28;;;;;;;6.80;4.95;;;-0.90;99.90;;;;;;4990212;28;20030;-80
2023/01/20 07:51:06;;;;;;;6.93;4.55;;;-0.90;99.90;;;;;;4972635;28;20128;-79
2023/01/20 07:53:45;;;;;;;14.50;6.65;;;-0.90;99.90;;;;;;4984560;28;20030;-78
2023/01/20 07:56:26;;;;;;;11.90;6.10;;;-0.80;99.90;;;;;;4993875;28;20057;-80
2023/01/20 07:58:54;;;;;;;;;;;-0.80;99.90;;;;;;4991907;28;20036;-79
2023/01/20 08:01:27;;;;;;;7.97;6.85;;;-0.80;99.90;;;;;;4990385;28;19917;-79
2023/01/20 08:03:53;;;;;;;11.23;6.47;;;-0.80;99.90;;;;;;4991431;28;20533;-79
2023/01/20 08:06:23;;;;;;;10.93;5.85;;;-0.80;99.90;;;;;;4990588;28;20118;-79
2023/01/20 08:08:49;;;;;;;12.48;7.20;;;-0.70;99.90;;;;;;4990897;28;20541;-78
2023/01/20 08:11:17;;;;;;;12.25;9.07;;;-0.70;99.90;;;;;;4969351;28;20482;-79
2023/01/20 08:13:43;;;;;;;12.80;8.65;;;-0.50;99.90;;;;;;4991093;28;20397;-79
2023/01/20 08:16:13;;;;;;;18.80;10.15;;;-0.20;99.90;;;;;;4973113;28;20034;-81
2023/01/20 08:18:40;;;;;;;12.18;7.45;;;-0.10;99.90;;;;;;4990766;28;20038;-82
2023/01/20 08:21:14;;;;;;;16.60;8.63;;;0.10;99.90;;;;;;4990193;28;20031;-80
2023/01/20 08:23:40;;;;;;;12.32;6.68;;;0.20;99.90;;;;;;5031361;23;20124;-73
2023/01/20 08:26:06;;;;;;;11.52;6.30;;;0.10;99.90;;;;;;5028823;28;20140;-75
2023/01/20 08:28:35;;;;;;;13.43;8.15;;;0.10;99.90;;;;;;5010684;28;20047;-75
2023/01/20 08:31:13;;;;;;;11.95;5.72;;;0.20;99.90;;;;;;5027956;28;20120;-75
2023/01/20 08:33:41;;;;;;;10.35;6.40;;;0.20;99.90;;;;;;4995990;28;20038;-75
2023/01/20 08:36:18;;;;;;;8.20;5.82;;;0.20;99.90;;;;;;5009273;28;20108;-75
2023/01/20 08:38:45;;;;;;;13.85;5.85;;;0.20;99.90;;;;;;5008200;28;20116;-75
2023/01/20 08:41:18;;;;;;;15.20;7.40;;;0.10;99.90;;;;;;5010288;28;20034;-76
2023/01/20 08:43:44;;;;;;;8.20;6.78;;;0.30;99.90;;;;;;5009532;28;20042;-76
2023/01/20 08:46:14;;;;;;;15.80;6.70;;;0.20;99.90;;;;;;5009797;28;20080;-76
2023/01/20 08:48:42;;;;;;;16.48;7.50;;;0.30;99.90;;;;;;4992755;28;20042;-76
2023/01/20 08:51:15;;;;;;;11.32;7.22;;;0.40;99.90;;;;;;5008647;28;20494;-74
2023/01/20 08:53:42;;;;;;;10.68;5.57;;;0.60;99.90;;;;;;4992357;28;20038;-75
2023/01/20 08:56:10;;;;;;;22.38;8.15;;;0.60;99.90;;;;;;5013417;28;20060;-75
2023/01/20 08:58:36;;;;;;;16.83;8.68;;;0.50;99.90;;;;;;5012337;28;20030;-75
2023/01/20 09:01:08;;;;;;;16.30;7.65;;;0.60;99.90;;;;;;5012413;28;20048;-75
2023/01/20 09:03:34;;;;;;;8.70;5.25;;;0.70;99.90;;;;;;5011997;28;20061;-75
2023/01/20 09:06:03;;;;;;;7.55;5.57;;;0.50;99.90;;;;;;5013808;28;20062;-76
2023/01/20 09:08:29;;;;;;;17.30;8.10;;;0.50;99.90;;;;;;5013065;28;20034;-75
2023/01/20 09:11:06;;;;;;;9.73;5.97;;;0.50;99.90;;;;;;5013727;28;20030;-75
2023/01/20 09:13:31;;;;;;;8.52;4.40;;;0.50;99.90;;;;;;5011915;28;20045;-76
2023/01/20 09:15:57;;;;;;;11.93;6.45;;;0.60;99.90;;;;;;5013784;28;20030;-75
2023/01/20 09:18:23;;;;;;;13.30;6.20;;;0.60;99.90;;;;;;5011664;28;20109;-76
2023/01/20 09:20:48;;;;;;;11.48;4.68;;;0.70;99.90;;;;;;4996243;28;20397;-75
2023/01/20 09:23:14;;;;;;;11.50;7.22;;;0.70;99.90;;;;;;5002638;28;20030;-76
2023/01/20 09:25:40;;;;;;;11.60;8.68;;;0.90;99.90;;;;;;5013531;28;20030;-76
2023/01/20 09:28:05;;;;;;;15.88;6.30;;;0.90;99.90;;;;;;5012200;28;20497;-76
2023/01/20 09:30:31;;;;;;;14.73;7.43;;;1.00;99.90;;;;;;5006475;28;20049;-75
2023/01/20 09:32:57;;;;;;;10.20;4.93;;;1.10;99.90;;;;;;5002087;28;20044;-75
2023/01/20 09:35:23;;;;;;;15.25;7.15;;;1.20;99.90;;;;;;5000337;28;20038;-75
2023/01/20 09:44:14;;;;;;;15.73;6.00;;;1.50;99.90;;;;;;4988517;28;20034;-75
2023/01/20 09:47:20;;;;;;;8.63;5.05;;;1.70;99.90;;;;;;4995662;28;20052;-75
2023/01/20 09:55:56;;;;;;;6.50;4.70;;;2.40;99.90;;;;;;5012732;28;20032;-74
2023/01/20 09:58:35;;;;;;;16.38;6.82;;;2.30;99.90;;;;;;5011226;28;20038;-75
2023/01/20 10:01:29;;;;;;;14.35;5.88;;;2.50;99.90;;;;;;5012186;28;20060;-75
2023/01/20 10:04:28;;;;;;;12.25;6.13;;;2.50;99.90;;;;;;5009713;28;20486;-75
2023/01/20 10:07:06;;;;;;;9.38;5.40;;;2.50;99.90;;;;;;5006168;28;20037;-74
2023/01/20 10:09:59;;;;;;;12.20;7.78;;;2.40;99.90;;;;;;5012790;28;20030;-76
2023/01/20 10:13:04;;;;;;;9.45;5.47;;;2.80;99.90;;;;;;5012279;28;20038;-84
2023/01/20 10:15:35;;;;;;;16.33;7.43;;;2.80;99.90;;;;;;4960959;28;20053;-76
2023/01/20 10:18:32;;;;;;;12.13;6.97;;;3.40;99.90;;;;;;5006814;28;20753;-76
2023/01/20 10:21:13;;;;;;;14.68;6.65;;;3.30;99.90;;;;;;5011190;28;20652;-75
2023/01/20 10:23:48;;;;;;;16.48;6.78;;;3.70;99.90;;;;;;5010794;28;20034;-76
2023/01/20 10:26:30;;;;;;;23.15;7.30;;;3.40;99.90;;;;;;5012540;28;20128;-77
2023/01/20 10:29:02;;;;;;;13.60;6.45;;;3.70;99.90;;;;;;4992878;28;20044;-80
2023/01/20 10:31:36;;;;;;;12.88;6.15;;;3.30;99.90;;;;;;5011383;28;20049;-78
2023/01/20 10:34:14;;;;;;;9.77;5.55;;;3.40;99.90;;;;;;4995078;28;20029;-76
2023/01/20 10:36:46;;;;;;;8.27;5.00;;;3.40;99.90;;;;;;5009828;28;20069;-78
2023/01/20 10:39:45;;;;;;;8.00;4.57;;;4.20;99.90;;;;;;5011981;28;20553;-80
2023/01/20 10:42:17;;;;;;;21.40;5.53;;;4.30;99.90;;;;;;5007383;28;20036;-77
2023/01/20 10:44:43;;;;;;;15.60;5.95;;;4.10;99.90;;;;;;5010659;28;20129;-76
2023/01/20 10:47:56;;;;;;;16.50;6.38;;;4.10;99.90;;;;;;5008808;28;20037;-77
2023/01/20 10:51:04;;;;;;;10.40;4.47;;;4.30;99.90;;;;;;5011962;28;20053;-76
2023/01/20 10:53:46;;;;;;;13.18;5.72;;;4.00;99.90;;;;;;4930126;29;20751;-76
2023/01/20 10:57:04;;;;;;;16.40;5.72;;;3.80;99.90;;;;;;4990310;28;20046;-75
2023/01/20 10:59:46;;;;;;;12.57;4.95;;;3.60;99.90;;;;;;4992616;28;20035;-75
2023/01/20 11:02:29;;;;;;;9.07;4.32;;;3.30;99.90;;;;;;5009122;28;20030;-75
2023/01/20 11:05:01;;;;;;;10.07;4.93;;;3.10;99.90;;;;;;5000707;28;20211;-75
2023/01/20 11:07:31;;;;;;;14.73;5.05;;;3.10;99.90;;;;;;5001114;28;20109;-79
2023/01/20 11:10:12;;;;;;;11.60;5.15;;;3.10;99.90;;;;;;4993489;28;20611;-76
2023/01/20 11:12:41;;;;;;;9.73;5.07;;;3.30;99.90;;;;;;4992527;28;20049;-71
2023/01/20 11:15:20;;;;;;;17.98;6.00;;;3.30;99.90;;;;;;4995278;28;20715;-71
2023/01/20 11:17:46;;;;;;;9.85;5.65;;;3.30;99.90;;;;;;5005396;28;20058;-71
2023/01/20 11:20:21;;;;;;;11.95;5.68;;;3.40;99.90;;;;;;5011360;28;20026;-71
2023/01/20 11:22:49;;;;;;;6.88;4.30;;;3.60;99.90;;;;;;5008715;28;20104;-71
2023/01/20 11:25:26;;;;;;;15.25;5.68;;;3.30;99.90;;;;;;4988413;28;20030;-72
2023/01/20 11:27:52;;;;;;;7.32;5.07;;;3.40;99.90;;;;;;5008787;28;20061;-70
2023/01/20 11:30:21;;;;;;;10.82;5.68;;;3.50;99.90;;;;;;5012325;28;20044;-72
2023/01/20 11:33:27;;;;;;;9.15;5.05;;;3.70;99.90;;;;;;5014574;28;20045;-72
2023/01/20 11:35:58;;;;;;;12.70;5.95;;;3.90;99.90;;;;;;4998062;28;20088;-71
2023/01/20 11:38:29;;;;;;;8.65;3.42;;;4.20;99.90;;;;;;5014627;28;20448;-72
2023/01/20 11:40:56;;;;;;;9.23;3.28;;;4.60;99.90;;;;;;5010370;28;20540;-71
2023/01/20 11:43:33;;;;;;;10.85;3.20;;;5.40;99.90;;;;;;5010925;28;20513;-73
2023/01/20 11:46:29;;;;;;;8.88;3.80;;;5.70;99.90;;;;;;4992093;28;20041;-74
2023/01/20 11:49:21;;;;;;;4.70;2.65;;;6.40;99.90;;;;;;5010833;28;20072;-75
2023/01/20 11:51:54;;;;;;;;;;;5.70;99.90;;;;;;5010048;28;20390;-72
2023/01/20 11:54:27;;;;;;;8.18;3.35;;;6.20;99.90;;;;;;5002410;28;20366;-73
2023/01/20 11:57:05;;;;;;;10.20;3.67;;;6.50;99.90;;;;;;4992013;28;20076;-72
2023/01/20 11:59:34;;;;;;;10.18;3.88;;;5.40;99.90;;;;;;5010723;28;20109;-74
2023/01/20 12:02:23;;;;;;;5.25;3.25;;;5.70;99.90;;;;;;5008173;28;20034;-73
2023/01/20 12:05:14;;;;;;;8.02;3.63;;;5.20;99.90;;;;;;5010582;28;20037;-72
2023/01/20 12:07:46;;;;;;;5.35;2.38;;;5.00;99.90;;;;;;5008432;28;20030;-71
2023/01/20 12:10:27;;;;;;;11.40;6.40;;;4.60;99.90;;;;;;5009310;28;20117;-72
2023/01/20 12:13:15;;;;;;;34.13;3.60;;;4.30;99.90;;;;;;4991491;28;20030;-72
2023/01/20 12:15:51;;;;;;;4.85;2.92;;;4.00;99.90;;;;;;5010240;28;20034;-72
2023/01/20 12:18:46;;;;;;;9.38;2.70;;;4.40;99.90;;;;;;5000863;28;20075;-77
2023/01/20 12:21:19;;;;;;;7.03;3.42;;;4.40;99.90;;;;;;5009695;28;20128;-76
2023/01/20 12:23:57;;;;;;;5.90;3.40;;;4.90;99.90;;;;;;4992958;28;20119;-72
2023/01/20 12:26:24;;;;;;;12.48;2.78;;;5.40;99.90;;;;;;5008483;28;20041;-73
2023/01/20 12:29:04;;;;;;;10.77;4.00;;;5.80;99.90;;;;;;5009113;28;20553;-72
2023/01/20 12:31:31;;;;;;;10.20;3.67;;;5.40;99.90;;;;;;5006695;28;20165;-72
2023/01/20 12:34:11;;;;;;;5.10;2.95;;;5.30;99.90;;;;;;5007587;28;20034;-71
2023/01/20 12:37:06;;;;;;;6.43;3.75;;;5.00;99.90;;;;;;5007866;28;20030;-71
2023/01/20 12:40:23;;;;;;;9.10;2.95;;;5.50;99.90;;;;;;5010271;28;20034;-71
2023/01/20 12:43:14;;;;;;;7.38;3.35;;;5.50;99.90;;;;;;5005213;28;20054;-71
2023/01/20 12:45:46;;;;;;;4.90;2.77;;;5.50;99.90;;;;;;5000396;28;20531;-71
2023/01/20 12:48:54;;;;;;;3.88;2.75;;;5.30;99.90;;;;;;4986796;28;20368;-71
2023/01/20 12:52:00;;;;;;;8.70;3.00;;;4.90;99.90;;;;;;4954301;28;20072;-72
2023/01/20 12:54:58;;;;;;;11.38;4.00;;;4.90;99.90;;;;;;5004607;28;20042;-73
2023/01/20 12:58:05;;;;;;;5.70;3.22;;;4.60;99.90;;;;;;5003062;28;20103;-73
2023/01/20 13:01:27;;;;;;;6.68;3.97;;;4.50;99.90;;;;;;4973486;28;20541;-73
2023/01/20 13:04:35;;;;;;;4.05;2.17;;;4.40;99.90;;;;;;4988491;28;20124;-71
2023/01/20 13:07:28;;;;;;;12.27;3.08;;;4.50;99.90;;;;;;5002903;28;20029;-72
2023/01/20 13:10:23;;;;;;;6.85;2.95;;;4.60;99.90;;;;;;4984418;28;20026;-70
2023/01/20 13:13:17;;;;;;;6.00;2.90;;;4.70;99.90;;;;;;5005121;28;20125;-71
2023/01/20 13:16:11;;;;;;;5.72;3.72;;;4.80;99.90;;;;;;5003827;28;20379;-71
2023/01/20 13:19:10;;;;;;;9.02;3.78;;;4.80;99.90;;;;;;4989365;28;20034;-72
2023/01/20 13:21:35;;;;;;;5.20;3.17;;;4.70;99.90;;;;;;4988426;28;20022;-74
2023/01/20 13:24:05;;;;;;;8.10;4.15;;;4.90;99.90;;;;;;5004973;28;20036;-70
2023/01/20 13:26:32;;;;;;;5.20;3.35;;;5.10;99.90;;;;;;5000930;28;20030;-71
2023/01/20 13:28:59;;;;;;;8.23;4.07;;;4.90;99.90;;;;;;4987384;28;20109;-73
2023/01/20 13:31:52;;;;;;;5.57;2.85;;;4.90;99.90;;;;;;5000406;28;20561;-73
2023/01/20 13:34:20;;;;;;;7.97;3.80;;;4.60;99.90;;;;;;4985629;28;20030;-72
2023/01/20 13:37:06;;;;;;;17.95;2.80;;;4.40;99.90;;;;;;4998212;28;20080;-72
2023/01/20 13:39:44;;;;;;;4.80;3.28;;;4.40;99.90;;;;;;4983282;28;20548;-72